Alhambra, CA (91896)

6:09 PM PDT on August 29, 2014 (GMT -0700)
Alhambra, CA | Change Station
CLOSE
Current Station
Personal Weather Station
Location: Alhambra, CA
Elevation: 369 ft
Nearby Weather Stations

Elev 369 ft 34.07 °N, 118.11 °W | Updated 4 minutes ago

Clear
Clear
85.4 °F
Feels Like 87 °F
N
0.0
Wind Variable Wind from North

Today
High -- | Low -- °F
--% Chance of Precip.
Yesterday
High -- | Low -- °F
Precip. -- in
6:24 AM 7:22 PM
Waxing Crescent, 18% visible
Pressure 29.79 in
Visibility 10.0 miles
Clouds Clear
Heat Index 87 °F
Dew Point 63 °F
Humidity 48%
Rainfall -999.00 in
Snow Depth Not available.
UV 1 out of 12
Pollen 7.80 out of 12
Ozone Moderate
PM2.5 Moderate
Flu Activity Not available.
METAR KCQT 300047Z AUTO VRB03KT 10SM CLR 25/15 A2980 RMK AO2 SLP087 T02500150

More Conditions Fewer Conditions

Pressure 29.79 in
Visibility 10.0 miles
Clouds Clear
Heat Index 87 °F
Dew Point 63 °F
Humidity 48%
Rainfall -999.00 in
Snow Depth Not available.
UV 1 out of 12
Pollen 7.80 out of 12
Ozone Moderate
PM2.5 Moderate
Flu Activity Not available.
METAR KCQT 300047Z AUTO VRB03KT 10SM CLR 25/15 A2980 RMK AO2 SLP087 T02500150

More Conditions Fewer Conditions

10-Day Weather Forecast

Almanac

Astronomy

Aug. 29, 2014 Rise Set
Actual Time 6:24 AM PDT 7:22 PM PDT
Civil Twilight 5:58 AM PDT 7:47 PM PDT
Nautical Twilight 5:27 AM PDT 8:18 PM PDT
Astronomical Twilight 4:56 AM PDT 8:49 PM PDT
Moon 10:05 AM PDT (8/29) 9:35 PM PDT (8/29)
Length of Visible Light 13h 49m
Length of Day
12h 58m
Tomorrow will be 2m 0s shorter.
Waxing Crescent, 18% of the Moon is Illuminated
Today
Waxing Crescent
Sep 2
First Quarter
Sep 8
Full
Sep 15
Last Quarter
Sep 24
New

Today's Extremes

State Highs State Lows

Community

WunderPhotos

Upload Photos

1,748,394 photos uploaded!

Nearby

Air Quality

  Air Quality AQ Index Pollutant
Yesterday Moderate
PM2.5
Yesterday Good
OZONE
Current Moderate
OZONE
Current Moderate
PM2.5
Saturday Good
PM10
Saturday Moderate
OZONE
Saturday Good
CO
Saturday Good
NO2

Snow Depth

Station Depth Elevation
Leavitt Meadows 0 in 7200 ft
Summit Meadow 0 in 9122 ft
CSS Lab 1 in 6900 ft
Adin Mountain 0 in 6200 ft

Earthquake Activity

City Distance Mag. Time & Date
No recent earthquake activity has been reported nearby.
Minimum magnitude displayed is 2.5.

Coastal Water Temperatures

Place Temperature
Santa Monica Pier 72.0 °F
Los Angeles, CA 64.9 °F
La Jolla, CA 75.9 °F

Nearby Weather Stations